Terminal Aerodrome Forecast
Issued by NWS

Home | Current Version | Previous Version | Text Only | Print | Product List | Glossary On
Versions: 1 2 3 4 5 6 7 8 9 10 11 12 13 14 15 16 17
826
FTUS43 KFGF 061120
TAFDVL
TAF
KDVL 061120Z 0612/0712 19011KT P6SM BKN100
     FM061700 24016KT P6SM OVC100
     FM062000 23015G22KT P6SM BKN050
     FM070000 26024G30KT P6SM BKN050
     FM070800 29032G40KT 2SM -SN BKN025=

USA.gov is the U.S. government's official web portal to all federal, state and local government web resources and services.